Time;durP1;ratioP1;P1;durP2;ratioP2;P2;SDS_P1;SDS_P2;PMS_P1;PMS_P2;Temp;Humidity;BMP_temperature;BMP_pressure;BME280_temperature;BME280_humidity;BME280_pressure;Samples;Min_cycle;Max_cycle;Signal;HPM_P1;HPM_P2
2022/06/15 00:03:23;;;;;;;11.40;3.75;;;;;;;11.98;84.16;101032.88;3665010;78;33283;-88
2022/06/15 00:08:24;;;;;;;9.98;3.40;;;;;;;11.93;84.44;101030.44;3666197;78;99173;-88
2022/06/15 00:13:28;;;;;;;8.87;3.63;;;;;;;11.88;84.82;101024.45;3670635;79;99183;-88
2022/06/15 00:18:28;;;;;;;7.67;3.37;;;;;;;11.80;84.83;101021.36;3662558;78;99313;-88
2022/06/15 00:23:31;;;;;;;10.03;3.97;;;;;;;11.74;84.95;101025.03;3689099;78;98880;-88
2022/06/15 00:28:33;;;;;;;9.53;3.33;;;;;;;11.71;85.52;101030.47;3652229;78;99086;-89
2022/06/15 00:33:34;;;;;;;10.08;3.70;;;;;;;11.68;85.67;101022.95;3676610;78;33235;-88
2022/06/15 00:44:25;;;;;;;9.50;4.10;;;;;;;11.60;86.25;101014.34;3618115;80;98367;-88
2022/06/15 00:49:42;;;;;;;9.68;3.95;;;;;;;11.55;86.41;101018.78;3654586;79;98766;-88
2022/06/15 00:54:47;;;;;;;13.22;4.25;;;;;;;11.49;86.48;101018.84;3647716;78;98766;-88
2022/06/15 00:59:56;;;;;;;10.70;4.03;;;;;;;11.48;86.81;101022.78;3679997;79;99015;-88
2022/06/15 01:05:02;;;;;;;10.13;4.10;;;;;;;11.44;87.24;101024.70;3679381;79;99053;-88
2022/06/15 01:10:17;;;;;;;8.85;3.80;;;;;;;11.39;87.17;101021.65;3692669;78;98779;-88
2022/06/15 01:15:29;;;;;;;9.38;3.60;;;;;;;11.35;87.36;101007.60;3688158;78;98410;-89
2022/06/15 01:21:18;;;;;;;9.23;4.08;;;;;;;11.31;87.42;101011.67;3669413;79;98938;-88
2022/06/15 01:27:01;;;;;;;8.33;3.58;;;;;;;11.29;87.86;101015.97;3681398;78;98898;-88
2022/06/15 01:32:23;;;;;;;10.30;3.62;;;;;;;11.23;87.88;101017.44;3686242;79;98628;-88
2022/06/15 01:37:36;;;;;;;8.85;3.52;;;;;;;11.13;88.24;101003.66;3674132;78;99279;-88
2022/06/15 01:42:42;;;;;;;12.47;4.35;;;;;;;11.15;88.15;101009.63;3699511;79;98774;-89
2022/06/15 01:47:47;;;;;;;9.03;3.52;;;;;;;11.11;88.64;101004.62;3712442;78;98938;-88
2022/06/15 01:52:56;;;;;;;10.10;3.98;;;;;;;10.97;88.70;100985.67;3720827;78;98880;-88
2022/06/15 01:58:02;;;;;;;12.20;4.10;;;;;;;11.09;89.00;101006.95;3708282;78;99230;-88
2022/06/15 02:03:07;;;;;;;;;;;;;;;11.12;89.28;101015.07;3720037;78;98744;-88
2022/06/15 02:08:25;;;;;;;9.35;3.37;;;;;;;11.08;90.09;101012.26;3717369;77;85072;-88
2022/06/15 02:13:31;;;;;;;9.48;3.67;;;;;;;11.07;89.03;101016.15;3700658;78;98791;-88
2022/06/15 02:18:34;;;;;;;11.33;3.97;;;;;;;11.07;88.72;101010.64;3711799;78;99032;-88
2022/06/15 02:23:38;;;;;;;8.78;3.67;;;;;;;11.02;88.95;101007.41;3723709;78;99003;-88
2022/06/15 02:28:45;;;;;;;7.97;3.80;;;;;;;11.02;89.22;101012.31;3701820;78;98935;-88
2022/06/15 02:33:51;;;;;;;10.95;3.75;;;;;;;10.99;89.48;101006.18;3715583;78;25842;-88
2022/06/15 02:38:52;;;;;;;7.72;3.47;;;;;;;10.98;89.47;101006.54;3721198;78;99172;-88
2022/06/15 02:43:56;;;;;;;7.73;3.60;;;;;;;10.99;89.67;101003.42;3710103;78;98715;-88
2022/06/15 02:48:57;;;;;;;8.87;3.67;;;;;;;10.95;89.71;101003.93;3692891;78;98836;-88
2022/06/15 02:54:07;;;;;;;9.83;4.03;;;;;;;10.94;89.75;101016.11;3711740;78;98853;-88
2022/06/15 02:59:07;;;;;;;7.33;4.15;;;;;;;10.92;89.96;101019.83;3705958;78;99193;-88
2022/06/15 03:04:08;;;;;;;7.37;3.63;;;;;;;10.94;90.09;101019.44;3714381;78;31588;-88
2022/06/15 03:09:09;;;;;;;7.43;3.73;;;;;;;10.94;90.39;101018.06;3715174;78;99107;-88
2022/06/15 03:14:10;;;;;;;9.37;3.87;;;;;;;10.94;90.02;101040.09;3709167;78;98665;-88
2022/06/15 03:19:12;;;;;;;7.58;3.45;;;;;;;10.88;89.66;101032.72;3700430;78;98767;-88
2022/06/15 03:24:13;;;;;;;10.73;4.50;;;;;;;10.85;90.00;101029.91;3715129;78;98688;-87
2022/06/15 03:29:14;;;;;;;11.37;3.90;;;;;;;10.84;90.32;101037.95;3707679;78;98990;-88
2022/06/15 03:34:15;;;;;;;14.90;5.10;;;;;;;10.68;90.26;101013.23;3713114;78;32218;-88
2022/06/15 03:39:16;;;;;;;8.93;4.00;;;;;;;10.86;90.48;101036.40;3678519;78;99024;-88
2022/06/15 03:44:18;;;;;;;9.40;4.77;;;;;;;10.88;90.68;101039.61;3708614;78;98979;-88
2022/06/15 03:49:19;;;;;;;9.27;4.20;;;;;;;10.90;90.66;101048.89;3708776;78;98975;-87
2022/06/15 03:54:20;;;;;;;9.77;4.00;;;;;;;10.90;89.88;101056.55;3681718;78;98759;-87
2022/06/15 03:59:21;;;;;;;8.07;4.33;;;;;;;10.88;89.67;101054.75;3706663;78;98902;-88
2022/06/15 04:04:23;;;;;;;16.73;5.20;;;;;;;10.90;90.33;101060.68;3710693;78;31564;-87
2022/06/15 04:09:25;;;;;;;17.43;5.60;;;;;;;10.97;90.19;101059.44;3701514;78;99099;-88
2022/06/15 04:14:27;;;;;;;14.43;5.30;;;;;;;11.02;90.35;101048.72;3711089;78;99048;-88
2022/06/15 04:19:32;;;;;;;17.57;5.70;;;;;;;11.07;90.38;101051.18;3699751;78;99248;-88
2022/06/15 04:24:33;;;;;;;15.03;5.42;;;;;;;11.11;89.98;101054.20;3713671;78;98886;-89
2022/06/15 04:29:34;;;;;;;13.53;5.30;;;;;;;11.11;89.13;101065.23;3695798;78;99354;-88
2022/06/15 04:34:35;;;;;;;10.20;4.35;;;;;;;11.08;88.84;101070.11;3698442;78;99193;-88
2022/06/15 04:39:36;;;;;;;9.10;3.77;;;;;;;11.12;89.60;101064.66;3688686;78;98707;-88
2022/06/15 04:44:37;;;;;;;10.40;4.30;;;;;;;11.19;89.26;101071.67;3685940;78;98730;-88
2022/06/15 04:49:38;;;;;;;10.30;4.00;;;;;;;11.26;89.69;101073.98;3693755;78;99309;-89
2022/06/15 04:54:39;;;;;;;9.57;4.53;;;;;;;11.33;89.66;101070.57;3696873;78;99210;-89
2022/06/15 04:59:40;;;;;;;9.07;4.17;;;;;;;11.42;88.93;101062.84;3687394;78;99155;-88
2022/06/15 05:04:42;;;;;;;12.07;5.40;;;;;;;11.48;88.51;101064.13;3692037;77;99211;-89
2022/06/15 05:09:47;;;;;;;9.13;4.20;;;;;;;11.60;88.55;101070.28;3699122;78;99046;-89
2022/06/15 05:14:47;;;;;;;13.00;4.50;;;;;;;11.78;88.39;101069.98;3699873;77;98671;-90
2022/06/15 05:19:49;;;;;;;13.03;4.53;;;;;;;12.10;88.54;101082.92;3686084;78;98916;-89
2022/06/15 05:24:49;;;;;;;10.15;3.65;;;;;;;12.56;88.29;101083.80;3683279;78;99323;-85
2022/06/15 05:29:50;;;;;;;8.57;3.53;;;;;;;13.24;88.84;101074.56;3684001;78;99108;-85
2022/06/15 05:34:54;;;;;;;11.33;4.03;;;;;;;14.03;88.38;101082.61;3694067;78;98836;-87
2022/06/15 05:39:55;;;;;;;9.10;3.08;;;;;;;14.94;85.86;101083.75;3688900;78;98911;-84
2022/06/15 05:44:56;;;;;;;8.80;3.23;;;;;;;15.88;84.46;101075.63;3704543;78;99060;-86
2022/06/15 05:49:59;;;;;;;10.00;3.23;;;;;;;16.86;82.60;101075.45;3698306;78;98898;-85
2022/06/15 05:55:01;;;;;;;7.65;2.50;;;;;;;17.62;79.11;101081.80;3691722;78;99357;-85
2022/06/15 06:00:05;;;;;;;9.13;2.30;;;;;;;18.55;76.72;101081.96;3700646;78;99107;-85
2022/06/15 06:05:07;;;;;;;8.95;2.27;;;;;;;19.28;75.47;101083.86;3702170;78;98910;-85
2022/06/15 06:10:09;;;;;;;6.28;1.72;;;;;;;20.08;72.71;101073.45;3691204;78;98754;-85
2022/06/15 06:15:10;;;;;;;6.92;1.75;;;;;;;20.56;69.68;101076.55;3686528;78;99049;-85
2022/06/15 06:20:11;;;;;;;10.80;2.33;;;;;;;21.33;69.18;101069.35;3670811;77;98882;-85
2022/06/15 06:25:12;;;;;;;8.13;2.05;;;;;;;21.85;65.14;101072.15;3688637;78;99483;-82
2022/06/15 06:30:14;;;;;;;6.00;1.82;;;;;;;22.26;62.89;101063.26;3680616;77;99219;-82
2022/06/15 06:35:15;;;;;;;6.45;1.82;;;;;;;22.61;62.34;101071.36;3691012;78;99386;-85
2022/06/15 06:40:17;;;;;;;8.05;2.30;;;;;;;22.84;59.85;101073.90;3691981;78;98642;-86
2022/06/15 06:45:18;;;;;;;8.60;2.37;;;;;;;23.02;58.28;101077.77;3697709;78;98848;-83
2022/06/15 06:50:19;;;;;;;8.45;1.55;;;;;;;23.12;57.38;101069.65;3667794;78;98674;-83
2022/06/15 06:55:27;;;;;;;6.58;1.50;;;;;;;23.61;57.24;101065.94;3696887;78;98842;-83
2022/06/15 07:00:23;;;;;;;10.03;2.47;;;;;;;24.12;56.55;101071.67;3550847;81;98895;-83
2022/06/15 07:05:24;;;;;;;5.78;1.55;;;;;;;24.68;54.12;101066.91;3587751;80;99281;-82
2022/06/15 07:10:26;;;;;;;6.47;1.80;;;;;;;24.61;50.65;101060.91;3657528;78;99230;-82
2022/06/15 07:15:28;;;;;;;5.70;1.60;;;;;;;24.17;51.15;101072.50;3693781;78;26166;-83
2022/06/15 07:20:31;;;;;;;7.17;1.67;;;;;;;24.29;50.75;101060.42;3680176;78;98930;-81
2022/06/15 07:25:32;;;;;;;6.80;1.40;;;;;;;24.65;50.45;101072.83;3698366;78;99170;-82
2022/06/15 07:30:34;;;;;;;6.37;1.75;;;;;;;25.03;50.90;101071.20;3672050;78;99360;-83
2022/06/15 07:35:36;;;;;;;5.30;1.90;;;;;;;25.19;48.29;101078.03;3710763;78;99022;-83
2022/06/15 07:40:37;;;;;;;6.60;1.70;;;;;;;24.86;47.48;101069.23;3697295;77;99050;-82
2022/06/15 07:45:38;;;;;;;7.50;1.55;;;;;;;24.81;48.23;101069.02;3717586;78;33327;-81
2022/06/15 07:50:41;;;;;;;5.40;1.47;;;;;;;25.16;47.72;101062.03;3717814;78;98974;-84
2022/06/15 07:55:46;;;;;;;5.75;1.27;;;;;;;25.45;46.42;101074.58;3709080;78;99074;-84
2022/06/15 08:00:49;;;;;;;5.97;1.57;;;;;;;25.07;45.30;101069.05;3702681;77;98747;-82
2022/06/15 08:05:51;;;;;;;5.87;1.42;;;;;;;25.28;46.36;101060.57;3685228;78;98811;-82
2022/06/15 08:10:52;;;;;;;6.53;1.85;;;;;;;25.66;46.80;101063.09;3658451;78;98833;-82
2022/06/15 08:15:53;;;;;;;7.87;1.40;;;;;;;26.15;47.12;101056.83;3709665;78;33670;-81
2022/06/15 08:21:00;;;;;;;5.78;1.47;;;;;;;26.50;45.00;101064.53;3579701;80;98914;-80
2022/06/15 08:26:06;;;;;;;6.37;1.10;;;;;;;26.41;44.74;101055.25;3664114;78;98693;-80
2022/06/15 08:31:07;;;;;;;5.17;1.20;;;;;;;26.60;44.79;101051.98;3632208;78;98876;-82
2022/06/15 08:36:10;;;;;;;6.08;1.70;;;;;;;26.73;44.26;101039.11;3653658;80;99336;-82
2022/06/15 08:41:21;;;;;;;4.65;1.20;;;;;;;26.92;43.35;101040.02;3638258;80;99146;-81
2022/06/15 08:46:39;;;;;;;3.67;1.32;;;;;;;27.15;43.68;101042.18;3621343;80;26454;-81
2022/06/15 08:51:44;;;;;;;5.47;1.27;;;;;;;27.50;44.12;101048.18;3648065;79;98493;-81
2022/06/15 08:56:53;;;;;;;5.58;1.42;;;;;;;27.75;41.89;101041.48;3646582;77;98833;-84
2022/06/15 09:02:12;;;;;;;6.28;1.60;;;;;;;27.93;42.31;101044.22;3636563;79;99015;-82
2022/06/15 09:07:53;;;;;;;3.25;0.82;;;;;;;28.12;41.67;101049.12;3652616;79;98977;-82
2022/06/15 09:13:29;;;;;;;10.18;1.40;;;;;;;28.45;41.16;101041.35;3491288;82;99177;-82
2022/06/15 09:18:38;;;;;;;3.12;1.20;;;;;;;28.69;40.75;101030.11;3492372;82;99318;-82
2022/06/15 09:24:09;;;;;;;4.37;1.67;;;;;;;29.04;40.77;101041.59;3657432;79;99223;-82
2022/06/15 09:29:24;;;;;;;5.15;1.25;;;;;;;29.00;39.74;101038.96;3494765;83;98802;-83
2022/06/15 09:34:41;;;;;;;4.72;1.55;;;;;;;29.25;39.58;101036.16;3505868;84;25981;-82
2022/06/15 09:39:44;;;;;;;2.25;1.00;;;;;;;29.64;38.95;101044.02;3551530;81;98859;-82
2022/06/15 09:44:59;;;;;;;5.95;1.55;;;;;;;29.16;39.33;101036.26;3620840;78;98627;-81
2022/06/15 09:50:39;;;;;;;4.12;1.25;;;;;;;30.16;37.65;101044.41;3531947;81;99392;-82
2022/06/15 09:55:48;;;;;;;4.67;1.32;;;;;;;30.78;38.60;101029.66;3587158;81;99168;-81
2022/06/15 10:00:49;;;;;;;3.02;1.17;;;;;;;31.36;36.97;101033.41;3587325;81;99175;-82
2022/06/15 10:05:54;;;;;;;2.55;1.10;;;;;;;31.31;35.95;101037.00;3636773;77;99113;-82
2022/06/15 10:11:00;;;;;;;3.33;1.17;;;;;;;30.77;35.00;101028.86;3624554;78;98791;-82
2022/06/15 10:16:19;;;;;;;3.92;1.87;;;;;;;30.79;35.00;101034.05;3634438;79;25851;-82
2022/06/15 10:21:28;;;;;;;6.28;1.30;;;;;;;31.04;34.64;101022.66;3631998;79;98684;-82
2022/06/15 10:26:46;;;;;;;3.08;1.17;;;;;;;31.38;34.75;101021.67;3637836;79;99034;-82
2022/06/15 10:32:05;;;;;;;3.37;0.80;;;;;;;31.81;33.53;101019.67;3620750;79;98840;-82
2022/06/15 10:37:19;;;;;;;3.05;1.05;;;;;;;32.51;34.67;101014.15;3617172;79;99161;-82
2022/06/15 10:42:23;;;;;;;;;;;;;;;33.26;33.29;101009.72;3639347;79;99245;-80
2022/06/15 10:47:49;;;;;;;2.02;0.85;;;;;;;33.16;29.95;101016.19;3628185;79;84879;-81
2022/06/15 10:53:02;;;;;;;2.00;1.00;;;;;;;32.14;32.02;101010.63;3642379;79;99391;-80
2022/06/15 11:03:42;;;;;;;4.33;1.10;;;;;;;32.53;33.59;100993.69;3647412;79;98965;-82
2022/06/15 11:08:44;;;;;;;6.92;1.30;;;;;;;32.94;32.21;101001.30;3623965;78;99000;-81
2022/06/15 11:14:09;;;;;;;3.30;1.00;;;;;;;32.63;32.70;100982.19;3640246;79;98791;-82
2022/06/15 11:19:11;;;;;;;3.30;1.02;;;;;;;32.65;33.15;101008.09;3635596;79;99115;-82
2022/06/15 11:24:37;;;;;;;2.87;0.90;;;;;;;32.37;33.64;101000.89;3648111;79;99451;-82
2022/06/15 11:30:05;;;;;;;3.70;1.25;;;;;;;32.15;33.61;100996.51;3625232;79;98973;-80
2022/06/15 11:35:23;;;;;;;3.58;0.93;;;;;;;32.02;32.37;100977.70;3650841;79;98900;-81
2022/06/15 11:40:48;;;;;;;3.65;0.93;;;;;;;32.03;30.46;100976.40;3644423;79;98466;-81
2022/06/15 11:46:06;;;;;;;3.17;0.90;;;;;;;31.98;30.63;100970.70;3657764;79;98375;-80
2022/06/15 11:51:15;;;;;;;3.02;0.93;;;;;;;31.70;31.18;100974.79;3633966;79;98885;-81
2022/06/15 11:56:19;;;;;;;7.12;1.30;;;;;;;32.28;32.57;100966.95;3628853;79;98706;-82
2022/06/15 12:01:41;;;;;;;3.85;1.00;;;;;;;31.96;30.30;100968.35;3640615;79;98782;-81
2022/06/15 12:07:23;;;;;;;3.60;1.10;;;;;;;31.76;29.91;100962.81;3639469;79;98909;-81
2022/06/15 12:12:45;;;;;;;3.12;0.93;;;;;;;31.99;30.27;100951.65;3635207;79;99148;-81
2022/06/15 12:17:57;;;;;;;4.08;0.95;;;;;;;32.53;31.09;100950.94;3647030;79;98726;-81
2022/06/15 12:23:20;;;;;;;3.62;1.00;;;;;;;32.84;31.21;100947.23;3636014;79;99261;-81
2022/06/15 12:28:44;;;;;;;2.87;1.05;;;;;;;32.91;29.35;100943.84;3623922;79;98978;-81
2022/06/15 12:33:57;;;;;;;4.60;1.20;;;;;;;32.13;30.43;100940.70;3631738;78;98399;-81
2022/06/15 12:39:22;;;;;;;2.40;1.10;;;;;;;32.39;29.93;100930.56;3649531;79;98946;-81
2022/06/15 12:44:28;;;;;;;4.12;0.95;;;;;;;32.01;30.14;100929.16;3651274;79;98801;-81
2022/06/15 12:49:38;;;;;;;3.58;1.27;;;;;;;32.67;31.39;100917.91;3653939;79;99225;-81
2022/06/15 12:55:03;;;;;;;3.50;1.17;;;;;;;32.87;28.75;100918.33;3649920;78;99179;-80
2022/06/15 13:00:15;;;;;;;5.47;1.30;;;;;;;31.94;29.06;100926.02;3649077;79;99306;-81
2022/06/15 13:05:31;;;;;;;4.12;0.93;;;;;;;31.47;30.83;100916.20;3666289;79;99278;-80
2022/06/15 13:10:32;;;;;;;5.15;1.30;;;;;;;31.77;30.56;100910.95;3647148;79;98693;-80
2022/06/15 13:15:40;;;;;;;3.67;1.10;;;;;;;31.90;30.13;100906.34;3659136;79;98668;-81
2022/06/15 13:20:53;;;;;;;1.87;0.88;;;;;;;31.63;28.92;100903.33;3661878;78;98796;-81
2022/06/15 13:26:05;;;;;;;5.75;2.00;;;;;;;31.51;31.04;100900.31;3656365;79;98771;-80
2022/06/15 13:31:11;;;;;;;10.40;1.55;;;;;;;31.46;29.69;100889.05;3648121;79;98724;-81
2022/06/15 13:36:18;;;;;;;4.08;1.32;;;;;;;31.45;30.32;100899.50;3663599;78;99021;-80
2022/06/15 13:41:26;;;;;;;5.45;1.45;;;;;;;31.63;31.38;100890.53;3643932;79;99231;-80
2022/06/15 13:46:35;;;;;;;7.60;1.62;;;;;;;31.41;31.61;100885.52;3681469;79;98906;-79
2022/06/15 13:51:50;;;;;;;3.55;1.22;;;;;;;31.73;30.46;100877.03;3700012;78;98556;-80
2022/06/15 13:57:23;;;;;;;4.00;1.20;;;;;;;31.16;30.57;100877.84;3681837;77;99082;-80
2022/06/15 14:02:35;;;;;;;3.08;1.60;;;;;;;30.90;29.83;100877.14;3701721;78;98631;-79
2022/06/15 14:08:00;;;;;;;3.08;0.90;;;;;;;30.66;29.55;100878.13;3689326;78;98936;-80
2022/06/15 14:13:45;;;;;;;5.62;1.45;;;;;;;30.86;31.36;100870.14;3678351;78;99048;-80
2022/06/15 14:19:00;;;;;;;6.00;1.55;;;;;;;31.07;29.91;100859.58;3685282;78;98890;-80
2022/06/15 14:24:21;;;;;;;5.83;1.32;;;;;;;31.03;30.29;100864.72;3675387;78;99235;-81
2022/06/15 14:29:22;;;;;;;2.95;1.00;;;;;;;30.87;28.92;100858.27;3679282;78;99276;-80
2022/06/15 14:34:31;;;;;;;4.15;1.10;;;;;;;30.84;30.84;100855.67;3676849;78;33293;-80
2022/06/15 14:39:36;;;;;;;6.92;1.60;;;;;;;30.83;29.51;100852.70;3679322;78;98745;-79
2022/06/15 14:44:37;;;;;;;2.80;1.15;;;;;;;30.89;31.13;100851.43;3682619;78;98477;-79
2022/06/15 14:49:43;;;;;;;3.95;0.95;;;;;;;31.04;32.45;100849.20;3676782;78;99200;-80
2022/06/15 14:54:48;;;;;;;9.88;1.57;;;;;;;31.00;31.45;100847.23;3683674;78;98774;-80
2022/06/15 14:59:57;;;;;;;2.77;1.22;;;;;;;30.91;29.52;100847.45;3667320;78;98718;-80
2022/06/15 15:04:58;;;;;;;3.30;1.30;;;;;;;30.29;30.14;100831.05;3679941;78;99245;-79
2022/06/15 15:09:59;;;;;;;6.22;1.10;;;;;;;30.35;31.15;100831.21;3696470;78;98628;-79
2022/06/15 15:15:03;;;;;;;3.15;1.35;;;;;;;29.91;31.46;100825.73;3699073;78;99046;-80
2022/06/15 15:20:28;;;;;;;6.37;1.62;;;;;;;29.41;29.64;100821.49;3701417;78;98764;-80
2022/06/15 15:25:50;;;;;;;3.60;1.10;;;;;;;28.94;31.81;100814.78;3700495;79;99081;-79
2022/06/15 15:41:55;;;;;;;3.55;1.30;;;;;;;28.53;34.00;100798.33;3681833;78;99057;-79
2022/06/15 15:46:57;;;;;;;4.22;1.12;;;;;;;28.29;31.82;100793.39;3695456;78;98888;-79
2022/06/15 15:52:00;;;;;;;3.67;1.30;;;;;;;27.67;32.36;100788.52;3686153;78;33263;-80
2022/06/15 15:57:09;;;;;;;5.92;1.55;;;;;;;27.21;31.75;100788.76;3689685;78;99041;-80
2022/06/15 16:02:14;;;;;;;2.98;1.00;;;;;;;26.81;31.67;100786.16;3687884;78;99274;-80
2022/06/15 16:07:22;;;;;;;4.03;1.15;;;;;;;26.34;32.87;100776.95;3684988;77;99229;-80
2022/06/15 16:12:27;;;;;;;3.87;1.20;;;;;;;26.21;33.26;100782.64;3700889;78;98753;-80
2022/06/15 16:17:30;;;;;;;3.08;1.45;;;;;;;25.94;33.26;100783.47;3714493;78;99050;-80
2022/06/15 16:22:34;;;;;;;4.50;1.45;;;;;;;25.57;34.28;100783.97;3695257;78;26335;-80
2022/06/15 16:27:37;;;;;;;2.33;1.05;;;;;;;25.52;34.42;100784.60;3692081;78;98933;-80
2022/06/15 16:32:40;;;;;;;4.80;1.32;;;;;;;25.25;34.61;100771.30;3686421;78;99124;-80
2022/06/15 16:37:41;;;;;;;4.75;1.30;;;;;;;25.11;34.29;100770.46;3674840;78;99188;-80
2022/06/15 16:42:43;;;;;;;5.65;1.32;;;;;;;24.87;35.65;100771.52;3699165;78;99189;-80
2022/06/15 16:47:44;;;;;;;6.03;1.27;;;;;;;24.81;35.03;100767.14;3690773;78;98837;-81
2022/06/15 16:52:45;;;;;;;3.33;1.22;;;;;;;24.65;36.45;100760.38;3708968;77;33250;-81
2022/06/15 16:57:47;;;;;;;5.15;1.50;;;;;;;24.58;37.17;100756.42;3692685;78;98936;-80
2022/06/15 17:02:48;;;;;;;4.53;1.45;;;;;;;24.49;36.36;100752.16;3711644;78;98589;-81
2022/06/15 17:07:49;;;;;;;3.22;1.37;;;;;;;24.33;36.97;100747.39;3689191;77;98864;-80
2022/06/15 17:12:50;;;;;;;8.10;1.42;;;;;;;24.15;36.48;100750.90;3690497;78;98831;-79
2022/06/15 17:17:52;;;;;;;5.33;1.60;;;;;;;23.96;36.20;100752.67;3682117;78;98563;-80
2022/06/15 17:22:53;;;;;;;4.55;1.60;;;;;;;23.82;36.06;100746.17;3686036;78;99109;-80
2022/06/15 17:27:55;;;;;;;5.37;1.32;;;;;;;23.71;35.97;100742.98;3672845;78;98422;-80
2022/06/15 17:32:57;;;;;;;2.72;1.27;;;;;;;23.62;36.50;100743.70;3670457;78;98584;-80
2022/06/15 17:37:57;;;;;;;4.40;1.27;;;;;;;23.56;37.10;100746.95;3689506;78;99302;-78
2022/06/15 17:42:59;;;;;;;6.27;1.60;;;;;;;23.45;36.99;100741.55;3701236;77;99004;-79
2022/06/15 17:48:00;;;;;;;3.80;1.30;;;;;;;23.35;36.80;100737.89;3695561;78;98768;-79
2022/06/15 17:53:02;;;;;;;7.30;1.30;;;;;;;23.32;37.19;100740.19;3693378;78;99214;-78
2022/06/15 17:58:04;;;;;;;5.97;1.50;;;;;;;23.24;37.53;100735.28;3687237;78;98749;-79
2022/06/15 18:03:05;;;;;;;7.20;2.10;;;;;;;23.16;37.34;100729.73;3657279;79;99117;-78
2022/06/15 18:08:07;;;;;;;5.33;1.67;;;;;;;23.10;37.88;100730.16;3616324;79;99307;-79
2022/06/15 18:13:09;;;;;;;2.80;1.20;;;;;;;23.01;39.19;100723.84;3643065;79;98771;-79
2022/06/15 18:18:10;;;;;;;2.27;1.30;;;;;;;22.96;40.43;100727.83;3636753;79;98834;-79
2022/06/15 18:23:12;;;;;;;3.40;1.40;;;;;;;22.90;40.65;100721.23;3646949;78;98792;-79
2022/06/15 18:28:16;;;;;;;2.85;1.40;;;;;;;22.79;41.49;100713.19;3651408;79;98498;-80
2022/06/15 18:33:17;;;;;;;2.90;1.47;;;;;;;22.69;42.18;100709.33;3629077;79;98573;-80
2022/06/15 18:38:21;;;;;;;4.35;1.60;;;;;;;22.56;42.99;100705.77;3605751;79;99090;-81
2022/06/15 18:48:41;;;;;;;3.62;1.30;;;;;;;22.29;44.83;100705.44;3613872;79;98940;-79
2022/06/15 18:53:42;;;;;;;7.00;1.90;;;;;;;22.13;45.12;100702.75;3647498;80;98802;-80
2022/06/15 18:58:43;;;;;;;4.65;1.75;;;;;;;22.00;46.28;100710.34;3641959;79;99089;-80
2022/06/15 19:03:49;;;;;;;3.87;1.50;;;;;;;21.82;47.23;100710.11;3618785;79;98941;-80
2022/06/15 19:08:52;;;;;;;5.72;1.87;;;;;;;21.63;48.34;100716.05;3645148;79;99014;-81
2022/06/15 19:13:53;;;;;;;6.62;1.75;;;;;;;21.46;49.33;100717.34;3650233;78;99205;-80
2022/06/15 19:18:54;;;;;;;3.67;1.73;;;;;;;21.28;50.64;100718.48;3643093;79;98916;-80
2022/06/15 19:23:55;;;;;;;6.83;2.50;;;;;;;21.08;51.74;100724.81;3640865;79;98839;-80
2022/06/15 19:28:57;;;;;;;6.23;1.70;;;;;;;20.90;52.64;100720.92;3636717;79;99017;-80
2022/06/15 19:33:58;;;;;;;7.63;1.90;;;;;;;20.71;53.66;100726.77;3652261;79;32384;-81
2022/06/15 19:38:59;;;;;;;9.33;3.17;;;;;;;20.48;54.77;100728.98;3641078;79;98708;-81
2022/06/15 19:44:00;;;;;;;6.23;3.10;;;;;;;20.30;55.60;100725.80;3648230;78;98824;-81
2022/06/15 19:49:01;;;;;;;5.07;2.37;;;;;;;20.15;56.51;100730.15;3659280;78;98973;-82
2022/06/15 19:54:02;;;;;;;6.27;2.40;;;;;;;19.96;57.47;100726.77;3673228;78;98869;-82
2022/06/15 19:59:03;;;;;;;6.97;2.03;;;;;;;19.79;58.29;100730.12;3673781;78;99031;-81
2022/06/15 20:04:06;;;;;;;7.87;2.60;;;;;;;19.66;58.86;100726.42;3659354;78;25927;-81
2022/06/15 20:09:10;;;;;;;6.67;2.27;;;;;;;19.49;59.69;100728.98;3683401;78;98726;-81
2022/06/15 20:14:11;;;;;;;6.33;2.20;;;;;;;19.35;60.25;100734.83;3705852;78;99207;-81
2022/06/15 20:19:17;;;;;;;10.53;2.92;;;;;;;19.22;60.87;100727.52;3676626;78;98809;-81
2022/06/15 20:24:17;;;;;;;5.17;2.35;;;;;;;19.07;61.69;100729.77;3702714;78;98550;-81
2022/06/15 20:29:24;;;;;;;6.42;2.50;;;;;;;18.95;62.27;100729.00;3694466;78;98405;-81
2022/06/15 20:34:25;;;;;;;9.18;2.80;;;;;;;18.80;62.93;100731.09;3702423;78;33332;-81
2022/06/15 20:39:26;;;;;;;6.78;2.50;;;;;;;18.65;63.28;100729.75;3694948;78;99071;-81
2022/06/15 20:44:31;;;;;;;7.77;3.27;;;;;;;18.56;63.93;100733.08;3702835;78;98603;-81
2022/06/15 20:49:35;;;;;;;7.50;3.00;;;;;;;18.45;64.61;100731.66;3690974;78;99339;-81
2022/06/15 20:54:39;;;;;;;10.85;2.85;;;;;;;18.32;65.08;100734.87;3709549;78;98799;-81
2022/06/15 20:59:40;;;;;;;6.28;3.00;;;;;;;18.23;65.60;100738.75;3627807;79;99300;-81
2022/06/15 21:05:09;;;;;;;8.77;3.13;;;;;;;18.13;65.69;100739.09;3639210;80;29430;-81
2022/06/15 21:20:49;;;;;;;8.73;3.47;;;;;;;17.81;67.18;100729.01;3632485;78;98654;-82
2022/06/15 21:25:51;;;;;;;12.90;3.37;;;;;;;17.73;67.33;100733.11;3640403;78;98389;-81
2022/06/15 21:30:52;;;;;;;9.10;2.97;;;;;;;17.64;68.09;100735.60;3629504;78;98828;-81
2022/06/15 21:35:54;;;;;;;7.17;2.63;;;;;;;17.56;68.20;100727.14;3643136;78;98497;-82
2022/06/15 21:40:59;;;;;;;7.25;3.50;;;;;;;17.46;67.79;100729.47;3639264;78;98545;-85
2022/06/15 21:46:03;;;;;;;12.87;3.17;;;;;;;17.41;68.65;100727.73;3637687;79;97974;-85
2022/06/15 21:51:05;;;;;;;6.12;3.10;;;;;;;17.34;68.88;100717.44;3616471;79;98820;-85
2022/06/15 21:56:07;;;;;;;10.18;3.00;;;;;;;17.27;68.83;100722.33;3638040;77;98880;-85
2022/06/15 22:01:08;;;;;;;8.98;2.70;;;;;;;17.21;68.50;100718.39;3627451;79;98978;-84
2022/06/15 22:06:09;;;;;;;8.03;3.10;;;;;;;17.14;68.08;100705.37;3642856;78;99104;-84
2022/06/15 22:11:10;;;;;;;8.57;2.93;;;;;;;17.09;67.87;100708.61;3573388;81;98354;-85
2022/06/15 22:16:12;;;;;;;8.00;2.80;;;;;;;17.00;67.75;100706.91;3553621;81;97718;-84
2022/06/15 22:21:18;;;;;;;6.43;2.40;;;;;;;16.96;68.31;100697.03;3639002;79;98535;-84
2022/06/15 22:26:19;;;;;;;5.97;2.80;;;;;;;16.94;68.42;100695.28;3641086;79;99148;-84
2022/06/15 22:31:20;;;;;;;5.53;2.63;;;;;;;16.91;69.32;100696.89;3583295;79;98775;-84
2022/06/15 22:36:21;;;;;;;6.30;3.20;;;;;;;16.89;69.94;100694.34;3586959;81;99220;-86
2022/06/15 22:41:22;;;;;;;7.67;2.83;;;;;;;16.88;70.54;100700.48;3642224;78;98738;-85
2022/06/15 22:46:23;;;;;;;5.70;2.87;;;;;;;16.86;71.14;100711.23;3650027;79;30715;-86
2022/06/15 22:51:24;;;;;;;6.93;2.90;;;;;;;16.83;71.36;100709.27;3659278;78;98622;-86
2022/06/15 22:56:26;;;;;;;8.77;2.93;;;;;;;16.80;71.98;100707.92;3695876;78;97979;-85
2022/06/15 23:01:28;;;;;;;8.43;3.50;;;;;;;16.74;71.80;100706.17;3681167;78;98604;-85
2022/06/15 23:06:29;;;;;;;7.93;3.43;;;;;;;16.69;72.18;100702.47;3673520;80;99352;-84
2022/06/15 23:11:30;;;;;;;6.37;2.90;;;;;;;16.63;72.00;100700.54;3753780;77;98796;-85
2022/06/15 23:16:31;;;;;;;8.67;3.13;;;;;;;16.55;71.43;100700.40;3675220;78;98844;-85
2022/06/15 23:21:32;;;;;;;8.33;3.40;;;;;;;16.50;71.18;100702.23;3694518;78;97835;-86
2022/06/15 23:26:33;;;;;;;9.53;3.90;;;;;;;16.45;70.72;100697.91;3689265;78;104104;-86
2022/06/15 23:31:34;;;;;;;7.90;3.20;;;;;;;16.40;71.26;100689.24;3677535;78;99077;-86
2022/06/15 23:36:37;;;;;;;10.30;4.37;;;;;;;16.36;71.08;100693.38;3654993;78;98967;-85
2022/06/15 23:42:00;;;;;;;9.40;3.57;;;;;;;16.31;71.50;100689.68;3688976;78;98600;-86
2022/06/15 23:52:23;;;;;;;6.83;3.33;;;;;;;16.28;72.28;100684.92;3691651;78;98427;-86
2022/06/15 23:57:24;;;;;;;10.82;3.45;;;;;;;16.25;72.40;100678.78;3650465;79;99101;-86
